createdAt,value
2022-10-04T00:02:28.973Z,2.97
2022-10-04T00:07:52.474Z,3.00
2022-10-04T00:13:00.357Z,4.30
2022-10-04T00:18:13.021Z,2.95
2022-10-04T00:28:36.007Z,3.20
2022-10-04T00:33:44.818Z,3.00
2022-10-04T00:39:09.326Z,2.97
2022-10-04T00:44:28.592Z,3.45
2022-10-04T00:49:40.238Z,3.15
2022-10-04T00:54:51.537Z,3.70
2022-10-04T01:00:03.823Z,2.95
2022-10-04T01:05:39.840Z,3.28
2022-10-04T01:10:57.187Z,3.40
2022-10-04T01:16:18.364Z,3.45
2022-10-04T01:21:21.689Z,3.28
2022-10-04T01:26:28.846Z,3.40
2022-10-04T01:31:34.933Z,4.43
2022-10-04T01:36:38.218Z,3.65
2022-10-04T01:41:53.648Z,3.60
2022-10-04T01:47:03.264Z,3.92
2022-10-04T01:52:18.204Z,3.42
2022-10-04T01:57:32.587Z,3.13
2022-10-04T02:02:50.130Z,3.28
2022-10-04T02:07:55.487Z,3.70
2022-10-04T02:12:59.945Z,3.42
2022-10-04T02:18:04.092Z,3.90
2022-10-04T02:23:08.601Z,3.53
2022-10-04T02:28:13.648Z,3.25
2022-10-04T02:33:17.948Z,3.78
2022-10-04T02:38:28.836Z,4.53
2022-10-04T02:43:51.936Z,3.65
2022-10-04T02:48:58.268Z,3.08
2022-10-04T02:54:31.609Z,3.35
2022-10-04T02:59:35.611Z,3.38
2022-10-04T03:04:40.441Z,3.20
2022-10-04T03:09:43.919Z,3.00
2022-10-04T03:14:47.536Z,3.17
2022-10-04T03:19:51.727Z,4.43
2022-10-04T03:24:58.103Z,3.63
2022-10-04T03:30:02.426Z,3.38
2022-10-04T03:35:27.429Z,3.83
2022-10-04T03:40:33.491Z,3.50
2022-10-04T03:45:37.280Z,4.68
2022-10-04T03:50:47.418Z,3.25
2022-10-04T03:55:50.732Z,3.35
2022-10-04T04:01:14.796Z,5.53
2022-10-04T04:06:21.119Z,3.63
2022-10-04T04:11:31.504Z,2.63
2022-10-04T04:16:36.577Z,5.50
2022-10-04T04:21:41.952Z,5.75
2022-10-04T04:26:50.336Z,5.10
2022-10-04T04:32:02.764Z,4.35
2022-10-04T04:42:18.225Z,9.48
2022-10-04T04:47:29.586Z,5.35
2022-10-04T04:52:34.570Z,3.15
2022-10-04T04:57:39.571Z,4.18
2022-10-04T05:02:56.231Z,3.20
2022-10-04T05:08:16.212Z,3.45
2022-10-04T05:13:19.833Z,5.10
2022-10-04T05:18:29.916Z,3.00
2022-10-04T05:23:34.944Z,3.70
2022-10-04T05:28:39.013Z,4.20
2022-10-04T05:33:55.495Z,4.20
2022-10-04T05:39:33.497Z,3.38
2022-10-04T05:44:52.592Z,5.47
2022-10-04T05:49:58.292Z,4.18
2022-10-04T05:55:29.167Z,4.22
2022-10-04T06:01:06.077Z,4.93
2022-10-04T06:06:38.247Z,4.72
2022-10-04T06:12:06.405Z,5.50
2022-10-04T06:17:29.594Z,6.15
2022-10-04T06:22:33.948Z,4.38
2022-10-04T06:28:00.958Z,4.85
2022-10-04T06:33:26.035Z,5.78
2022-10-04T06:38:44.798Z,6.35
2022-10-04T06:44:09.426Z,5.40
2022-10-04T06:49:40.577Z,5.60
2022-10-04T06:55:09.946Z,5.13
2022-10-04T07:00:25.988Z,5.20
2022-10-04T07:05:35.868Z,4.85
2022-10-04T07:10:50.032Z,5.93
2022-10-04T07:16:00.243Z,4.55
2022-10-04T07:21:10.543Z,6.15
2022-10-04T07:26:29.253Z,8.02
2022-10-04T07:31:35.486Z,6.32
2022-10-04T07:36:58.632Z,6.10
2022-10-04T07:42:53.943Z,6.10
2022-10-04T07:48:19.734Z,5.63
2022-10-04T07:53:46.549Z,5.88
2022-10-04T07:59:12.547Z,7.20
2022-10-04T08:04:27.942Z,6.18
2022-10-04T08:14:57.378Z,5.90
2022-10-04T08:20:13.849Z,6.07
2022-10-04T08:25:52.661Z,5.65
2022-10-04T08:31:01.732Z,5.78
2022-10-04T08:36:51.809Z,5.82
2022-10-04T08:42:19.292Z,5.57
2022-10-04T08:47:41.176Z,5.85
2022-10-04T08:52:56.314Z,7.22
2022-10-04T08:58:05.681Z,6.40
2022-10-04T09:03:47.014Z,6.13
2022-10-04T09:08:56.243Z,8.02
2022-10-04T09:14:31.512Z,4.88
2022-10-04T09:19:41.709Z,6.57
2022-10-04T09:24:56.075Z,5.82
2022-10-04T09:30:20.314Z,6.03
2022-10-04T09:36:01.174Z,5.07
2022-10-04T09:41:33.261Z,6.65
2022-10-04T09:47:18.990Z,6.40
2022-10-04T09:52:43.938Z,6.35
2022-10-04T09:58:02.505Z,6.05
2022-10-04T10:03:21.075Z,5.00
2022-10-04T10:09:05.509Z,5.22
2022-10-04T10:14:14.707Z,5.72
2022-10-04T10:19:37.057Z,5.72
2022-10-04T10:24:58.619Z,5.75
2022-10-04T10:30:19.480Z,5.38
2022-10-04T10:35:59.207Z,6.63
2022-10-04T10:41:02.783Z,5.55
2022-10-04T10:46:22.412Z,5.68
2022-10-04T10:51:25.668Z,5.25
2022-10-04T10:56:53.752Z,6.78
2022-10-04T11:02:48.792Z,5.47
2022-10-04T11:08:30.957Z,5.00
2022-10-04T11:13:54.161Z,6.05
2022-10-04T11:18:57.397Z,5.50
2022-10-04T11:24:41.512Z,5.78
2022-10-04T11:30:12.364Z,5.38
2022-10-04T11:35:25.189Z,5.90
2022-10-04T11:40:29.178Z,6.82
2022-10-04T11:45:38.684Z,4.65
2022-10-04T11:51:01.009Z,5.35
2022-10-04T11:56:28.278Z,5.85
2022-10-04T12:01:48.856Z,6.60
2022-10-04T12:07:23.559Z,5.20
2022-10-04T12:12:51.656Z,5.47
2022-10-04T12:18:31.276Z,4.97
2022-10-04T12:24:14.786Z,6.05
2022-10-04T12:29:56.098Z,6.80
2022-10-04T12:35:47.114Z,5.55
2022-10-04T12:46:00.535Z,7.72
2022-10-04T12:51:29.178Z,8.48
2022-10-04T12:56:42.101Z,7.55
2022-10-04T13:02:12.847Z,6.93
2022-10-04T13:07:30.315Z,7.15
2022-10-04T13:13:04.459Z,6.75
2022-10-04T13:18:48.622Z,6.13
2022-10-04T13:24:12.641Z,5.80
2022-10-04T13:29:36.075Z,6.07
2022-10-04T13:34:45.870Z,4.93
2022-10-04T13:40:26.573Z,5.35
2022-10-04T13:45:54.350Z,5.50
2022-10-04T13:51:28.899Z,4.80
2022-10-04T13:56:34.829Z,5.03
2022-10-04T14:01:52.972Z,4.95
2022-10-04T14:07:39.488Z,5.07
2022-10-04T14:13:07.128Z,4.43
2022-10-04T14:18:29.159Z,5.80
2022-10-04T14:23:55.367Z,4.95
2022-10-04T14:29:16.326Z,4.63
2022-10-04T14:34:31.637Z,4.55
2022-10-04T14:40:20.455Z,3.75
2022-10-04T14:45:35.792Z,3.90
2022-10-04T14:50:54.617Z,3.53
2022-10-04T14:56:10.828Z,3.85
2022-10-04T15:01:14.324Z,3.78
2022-10-04T15:06:38.050Z,3.95
2022-10-04T15:12:08.007Z,3.70
2022-10-04T15:17:27.067Z,3.90
2022-10-04T15:22:46.635Z,4.80
2022-10-04T15:27:55.485Z,3.63
2022-10-04T15:33:20.629Z,5.38
2022-10-04T15:38:32.921Z,4.35
2022-10-04T15:44:04.422Z,3.75
2022-10-04T15:49:16.719Z,3.83
2022-10-04T15:59:56.493Z,3.83
2022-10-04T16:05:11.191Z,4.22
2022-10-04T16:10:27.309Z,4.03
2022-10-04T16:15:39.406Z,5.05
2022-10-04T16:21:08.845Z,3.90
2022-10-04T16:26:19.784Z,3.80
2022-10-04T16:31:46.912Z,4.03
2022-10-04T16:37:12.954Z,4.20
2022-10-04T16:42:18.757Z,3.75
2022-10-04T16:47:36.912Z,3.85
2022-10-04T16:53:03.149Z,4.47
2022-10-04T16:58:43.971Z,4.78
2022-10-04T17:04:14.297Z,3.83
2022-10-04T17:09:20.276Z,4.45
2022-10-04T17:14:46.795Z,4.03
2022-10-04T17:20:12.013Z,4.00
2022-10-04T17:25:42.770Z,3.92
2022-10-04T17:31:06.167Z,4.45
2022-10-04T17:36:35.109Z,4.20
2022-10-04T17:42:24.570Z,4.13
2022-10-04T17:47:36.668Z,4.88
2022-10-04T17:53:20.688Z,5.38
2022-10-04T17:59:13.136Z,4.22
2022-10-04T18:04:24.419Z,4.15
2022-10-04T18:09:33.789Z,4.22
2022-10-04T18:14:59.426Z,4.65
2022-10-04T18:20:31.813Z,4.70
2022-10-04T18:25:35.549Z,5.57
2022-10-04T18:30:50.772Z,4.47
2022-10-04T18:36:15.077Z,4.50
2022-10-04T18:41:24.801Z,4.65
2022-10-04T18:46:40.271Z,5.10
2022-10-04T18:51:56.627Z,4.28
2022-10-04T18:57:22.790Z,4.93
2022-10-04T19:02:39.466Z,4.28
2022-10-04T19:08:01.233Z,5.70
2022-10-04T19:13:26.348Z,5.00
2022-10-04T19:18:55.897Z,4.25
2022-10-04T19:24:34.790Z,5.05
2022-10-04T19:30:03.168Z,5.32
2022-10-04T19:35:22.977Z,4.47
2022-10-04T19:40:53.013Z,4.47
2022-10-04T19:46:19.066Z,4.25
2022-10-04T19:51:35.034Z,5.05
2022-10-04T19:56:50.987Z,4.85
2022-10-04T20:01:54.663Z,4.50
2022-10-04T20:07:00.656Z,4.88
2022-10-04T20:12:05.524Z,4.43
2022-10-04T20:17:08.881Z,4.93
2022-10-04T20:22:12.710Z,8.75
2022-10-04T20:27:25.646Z,4.93
2022-10-04T20:32:29.568Z,4.85
2022-10-04T20:37:45.891Z,4.22
2022-10-04T20:43:14.572Z,4.18
2022-10-04T20:48:27.632Z,5.13
2022-10-04T20:53:36.065Z,4.00
2022-10-04T20:58:40.157Z,4.30
2022-10-04T21:03:43.595Z,4.70
2022-10-04T21:08:48.008Z,5.00
2022-10-04T21:13:56.853Z,5.18
2022-10-04T21:19:48.316Z,5.65
2022-10-04T21:24:51.453Z,4.13
2022-10-04T21:29:57.278Z,5.40
2022-10-04T21:35:00.727Z,4.55
2022-10-04T21:40:06.103Z,5.28
2022-10-04T21:45:10.935Z,4.18
2022-10-04T21:50:16.610Z,4.13
2022-10-04T21:55:20.042Z,4.57
2022-10-04T22:00:23.536Z,4.72
2022-10-04T22:05:27.059Z,4.47
2022-10-04T22:10:30.462Z,4.82
2022-10-04T22:15:33.866Z,4.45
2022-10-04T22:20:37.792Z,5.05
2022-10-04T22:25:41.425Z,4.53
2022-10-04T22:30:45.674Z,5.78
2022-10-04T22:35:49.581Z,4.55
2022-10-04T22:40:53.626Z,5.47
2022-10-04T22:45:57.511Z,4.15
2022-10-04T22:51:01.364Z,4.72
2022-10-04T22:56:08.578Z,4.95
2022-10-04T23:01:17.894Z,4.85
2022-10-04T23:06:21.451Z,4.97
2022-10-04T23:11:25.217Z,4.95
2022-10-04T23:16:28.836Z,4.72
2022-10-04T23:21:34.761Z,4.55
2022-10-04T23:26:39.701Z,4.80
2022-10-04T23:31:44.971Z,6.60
2022-10-04T23:36:52.261Z,4.80
2022-10-04T23:41:56.823Z,5.28
2022-10-04T23:47:01.601Z,5.88
2022-10-04T23:52:14.572Z,5.45
2022-10-04T23:57:27.136Z,5.47
